createdAt,value
2019-06-01T00:00:38.431Z,48.11
2019-06-01T00:01:38.732Z,48.3
2019-06-01T00:02:38.775Z,48.11
2019-06-01T00:03:38.748Z,47.82
2019-06-01T00:04:38.789Z,48.69
2019-06-01T00:05:38.819Z,48.69
2019-06-01T00:06:38.818Z,47.92
2019-06-01T00:07:38.853Z,48.69
2019-06-01T00:08:40.084Z,48.59
2019-06-01T00:09:38.978Z,48.02
2019-06-01T00:10:38.993Z,48.59
2019-06-01T00:11:39.222Z,48.69
2019-06-01T00:12:39.276Z,48.49
2019-06-01T00:13:39.464Z,48.69
2019-06-01T00:14:39.641Z,48.49
2019-06-01T00:15:39.867Z,48.49
2019-06-01T00:16:39.910Z,48.02
2019-06-01T00:17:39.598Z,48.59
2019-06-01T00:18:39.805Z,47.92
2019-06-01T00:19:39.926Z,48.49
2019-06-01T00:20:40.064Z,48.59
2019-06-01T00:21:38.911Z,48.4
2019-06-01T00:22:39.173Z,48.3
2019-06-01T00:23:40.280Z,48.38
2019-06-01T00:24:39.224Z,48.3
2019-06-01T00:25:38.998Z,48.38
2019-06-01T00:26:39.282Z,48.38
2019-06-01T00:27:40.351Z,48.28
2019-06-01T00:28:39.305Z,48.57
2019-06-01T00:29:40.533Z,48.49
2019-06-01T00:30:39.352Z,48.66
2019-06-01T00:31:39.394Z,48.57
2019-06-01T00:32:39.408Z,48.57
2019-06-01T00:33:39.442Z,48.57
2019-06-01T00:34:39.454Z,48.57
2019-06-01T00:35:39.471Z,48.57
2019-06-01T00:36:39.497Z,48.66
2019-06-01T00:37:39.514Z,48.76
2019-06-01T00:38:39.529Z,48.57
2019-06-01T00:39:39.563Z,48.47
2019-06-01T00:40:39.597Z,48.66
2019-06-01T00:41:39.622Z,48.47
2019-06-01T00:42:39.724Z,48.66
2019-06-01T00:43:39.662Z,48.47
2019-06-01T00:44:39.677Z,48.76
2019-06-01T00:45:39.692Z,49.15
2019-06-01T00:46:39.724Z,48.85
2019-06-01T00:47:39.497Z,48.95
2019-06-01T00:48:39.772Z,48.95
2019-06-01T00:49:39.781Z,48.74
2019-06-01T00:50:39.574Z,48.95
2019-06-01T00:51:39.591Z,49.15
2019-06-01T00:52:39.858Z,49.15
2019-06-01T00:53:39.881Z,49.15
2019-06-01T00:54:39.909Z,49.51
2019-06-01T00:55:39.911Z,49.63
2019-06-01T00:56:39.931Z,49.53
2019-06-01T00:57:39.702Z,49.12
2019-06-01T00:58:39.992Z,48.93
2019-06-01T00:59:39.756Z,49.63
2019-06-01T01:00:47.349Z,49.12
2019-06-01T01:01:40.062Z,49.41
2019-06-01T01:02:40.060Z,49.51
2019-06-01T01:03:39.831Z,49.6
2019-06-01T01:04:40.153Z,49.51
2019-06-01T01:05:40.148Z,49.22
2019-06-01T01:06:40.164Z,49.41
2019-06-01T01:07:40.812Z,49.41
2019-06-01T01:08:40.201Z,49.6
2019-06-01T01:09:40.272Z,49.41
2019-06-01T01:10:40.245Z,49.51
2019-06-01T01:11:40.022Z,49.69
2019-06-01T01:12:40.296Z,49.6
2019-06-01T01:13:40.367Z,49.41
2019-06-01T01:14:40.327Z,49.69
2019-06-01T01:15:40.394Z,49.99
2019-06-01T01:16:40.385Z,50.08
2019-06-01T01:17:40.415Z,49.51
2019-06-01T01:18:40.435Z,49.51
2019-06-01T01:19:40.462Z,50.08
2019-06-01T01:20:40.219Z,49.51
2019-06-01T01:21:40.502Z,49.51
2019-06-01T01:22:40.262Z,49.6
2019-06-01T01:23:40.540Z,49.41
2019-06-01T01:24:40.545Z,49.89
2019-06-01T01:25:40.573Z,49.89
2019-06-01T01:26:40.602Z,49.57
2019-06-01T01:27:40.613Z,49.6
2019-06-01T01:28:40.639Z,49.6
2019-06-01T01:29:40.667Z,49.57
2019-06-01T01:30:40.710Z,49.48
2019-06-01T01:31:40.718Z,49.48
2019-06-01T01:32:40.769Z,49.48
2019-06-01T01:33:40.743Z,49.51
2019-06-01T01:34:40.810Z,49.96
2019-06-01T01:35:40.786Z,49.89
2019-06-01T01:36:40.813Z,50.05
2019-06-01T01:37:40.846Z,49.77
2019-06-01T01:38:40.854Z,49.77
2019-06-01T01:39:40.905Z,50.25
2019-06-01T01:40:40.965Z,49.87
2019-06-01T01:41:40.919Z,50.25
2019-06-01T01:42:40.946Z,49.77
2019-06-01T01:43:40.964Z,50.63
2019-06-01T01:44:41.003Z,50.34
2019-06-01T01:45:41.041Z,50.44
2019-06-01T01:46:41.026Z,50.05
2019-06-01T01:47:40.824Z,50.25
2019-06-01T01:48:41.079Z,49.87
2019-06-01T01:49:40.860Z,50.15
2019-06-01T01:50:41.127Z,50.54
2019-06-01T01:51:41.162Z,50.25
2019-06-01T01:52:41.162Z,50.15
2019-06-01T01:53:40.937Z,49.96
2019-06-01T01:54:41.211Z,50.63
2019-06-01T01:55:41.229Z,50.73
2019-06-01T01:56:41.245Z,49.87
2019-06-01T01:57:41.284Z,50.54
2019-06-01T01:58:41.317Z,50.34
2019-06-01T01:59:41.321Z,50.25
2019-06-01T02:00:41.338Z,50.15
2019-06-01T02:01:41.358Z,50.32
2019-06-01T02:02:41.392Z,50.05
2019-06-01T02:03:41.414Z,50.51
2019-06-01T02:04:41.429Z,51.02
2019-06-01T02:05:41.442Z,50.25
2019-06-01T02:06:41.484Z,50.25
2019-06-01T02:07:41.486Z,50.25
2019-06-01T02:08:41.522Z,50.15
2019-06-01T02:09:41.539Z,50.25
2019-06-01T02:10:41.558Z,50.13
2019-06-01T02:11:41.571Z,50.15
2019-06-01T02:12:41.613Z,50.13
2019-06-01T02:13:41.369Z,51.02
2019-06-01T02:14:41.391Z,50.82
2019-06-01T02:15:41.651Z,50.7
2019-06-01T02:16:41.697Z,50.7
2019-06-01T02:17:41.701Z,50.34
2019-06-01T02:18:41.714Z,50.51
2019-06-01T02:19:41.736Z,50.32
2019-06-01T02:20:41.785Z,50.7
2019-06-01T02:21:41.822Z,50.23
2019-06-01T02:22:42.011Z,50.7
2019-06-01T02:23:56.907Z,50.61
2019-06-01T02:24:41.847Z,50.51
2019-06-01T02:25:41.860Z,50.9
2019-06-01T02:26:41.643Z,50.9
2019-06-01T02:27:41.929Z,50.8
2019-06-01T02:28:41.940Z,50.51
2019-06-01T02:29:41.947Z,50.99
2019-06-01T02:30:42.018Z,50.7
2019-06-01T02:31:45.092Z,50.42
2019-06-01T02:32:42.017Z,50.8
2019-06-01T02:33:42.052Z,50.7
2019-06-01T02:34:42.054Z,50.61
2019-06-01T02:35:41.840Z,50.61
2019-06-01T02:36:42.121Z,50.8
2019-06-01T02:37:42.130Z,50.61
2019-06-01T02:38:42.161Z,50.8
2019-06-01T02:39:42.163Z,50.7
2019-06-01T02:40:42.183Z,50.61
2019-06-01T02:41:42.236Z,50.7
2019-06-01T02:42:42.238Z,50.99
2019-06-01T02:43:42.244Z,50.9
2019-06-01T02:44:42.275Z,50.7
2019-06-01T02:45:42.350Z,51.18
2019-06-01T02:46:42.327Z,50.8
2019-06-01T02:47:42.369Z,50.99
2019-06-01T02:48:42.372Z,50.99
2019-06-01T02:49:42.401Z,51.18
2019-06-01T02:50:42.426Z,50.99
2019-06-01T02:51:42.439Z,50.9
2019-06-01T02:52:42.439Z,50.8
2019-06-01T02:53:42.461Z,51.06
2019-06-01T02:54:42.474Z,51.06
2019-06-01T02:55:42.498Z,50.99
2019-06-01T02:56:42.535Z,51.28
2019-06-01T02:57:42.296Z,50.96
2019-06-01T02:58:42.582Z,50.78
2019-06-01T02:59:42.594Z,51.25
2019-06-01T03:00:42.619Z,51.25
2019-06-01T03:02:04.759Z,51.16
2019-06-01T03:02:42.664Z,50.96
2019-06-01T03:03:42.674Z,51.25
2019-06-01T03:04:42.689Z,51.16
2019-06-01T03:05:42.716Z,50.87
2019-06-01T03:06:42.752Z,51.06
2019-06-01T03:07:42.774Z,51.25
2019-06-01T03:08:42.774Z,50.96
2019-06-01T03:09:42.800Z,51.35
2019-06-01T03:10:42.834Z,51.25
2019-06-01T03:11:42.587Z,51.64
2019-06-01T03:12:42.874Z,51.64
2019-06-01T03:13:42.909Z,51.64
2019-06-01T03:14:42.898Z,51.35
2019-06-01T03:15:42.925Z,51.45
2019-06-01T03:16:42.903Z,51.54
2019-06-01T03:17:42.974Z,51.73
2019-06-01T03:18:42.982Z,51.73
2019-06-01T03:19:42.762Z,51.64
2019-06-01T03:20:43.039Z,51.83
2019-06-01T03:21:42.800Z,51.93
2019-06-01T03:22:43.085Z,51.83
2019-06-01T03:23:43.098Z,51.93
2019-06-01T03:24:43.125Z,51.64
2019-06-01T03:25:43.143Z,52.02
2019-06-01T03:26:42.918Z,51.64
2019-06-01T03:27:43.187Z,51.64
2019-06-01T03:28:43.206Z,51.73
2019-06-01T03:29:43.233Z,51.61
2019-06-01T03:30:47.997Z,51.45
2019-06-01T03:31:43.274Z,51.35
2019-06-01T03:32:43.287Z,51.93
2019-06-01T03:33:43.301Z,51.93
2019-06-01T03:34:43.320Z,51.64
2019-06-01T03:35:43.851Z,52.02
2019-06-01T03:36:43.111Z,51.83
2019-06-01T03:37:43.136Z,51.83
2019-06-01T03:38:43.415Z,51.81
2019-06-01T03:39:43.419Z,51.73
2019-06-01T03:40:43.444Z,51.71
2019-06-01T03:41:43.460Z,51.83
2019-06-01T03:42:43.491Z,52.02
2019-06-01T03:43:43.507Z,52.12
2019-06-01T03:44:43.283Z,52.02
2019-06-01T03:45:43.566Z,52.02
2019-06-01T03:46:43.686Z,52.09
2019-06-01T03:47:43.587Z,52.19
2019-06-01T03:48:43.625Z,52.22
2019-06-01T03:49:43.383Z,52.22
2019-06-01T03:50:43.411Z,52.22
2019-06-01T03:51:43.686Z,52.22
2019-06-01T03:52:43.706Z,52.12
2019-06-01T03:53:43.725Z,52.22
2019-06-01T03:54:43.729Z,52.22
2019-06-01T03:55:43.763Z,52.4
2019-06-01T03:56:43.842Z,52.31
2019-06-01T03:57:43.837Z,52.22
2019-06-01T03:58:43.810Z,52.09
2019-06-01T03:59:43.838Z,52.12
2019-06-01T04:00:43.616Z,52.4
2019-06-01T04:01:46.572Z,51.9
2019-06-01T04:02:43.892Z,52.09
2019-06-01T04:03:43.933Z,52.09
2019-06-01T04:04:43.958Z,52.28
2019-06-01T04:05:43.957Z,51.9
2019-06-01T04:06:43.991Z,52.4
2019-06-01T04:07:43.999Z,52.38
2019-06-01T04:08:44.037Z,52.48
2019-06-01T04:09:44.048Z,52.38
2019-06-01T04:10:44.084Z,52.48
2019-06-01T04:11:44.089Z,52.19
2019-06-01T04:12:44.118Z,52.38
2019-06-01T04:13:44.140Z,51.9
2019-06-01T04:14:43.909Z,52.38
2019-06-01T04:15:44.186Z,52.48
2019-06-01T04:16:44.205Z,52.48
2019-06-01T04:17:44.232Z,52.38
2019-06-01T04:18:44.246Z,52.48
2019-06-01T04:19:44.248Z,52.38
2019-06-01T04:20:44.277Z,52.38
2019-06-01T04:21:44.291Z,52.28
2019-06-01T04:22:44.310Z,52.38
2019-06-01T04:23:44.334Z,52.57
2019-06-01T04:24:44.368Z,52.38
2019-06-01T04:25:44.396Z,52.48
2019-06-01T04:26:44.390Z,52.57
2019-06-01T04:27:44.422Z,52.48
2019-06-01T04:28:44.451Z,52.67
2019-06-01T04:29:44.465Z,52.57
2019-06-01T04:30:44.235Z,52.76
2019-06-01T04:31:44.256Z,52.76
2019-06-01T04:32:52.718Z,52.57
2019-06-01T04:33:44.549Z,52.57
2019-06-01T04:34:44.569Z,52.76
2019-06-01T04:35:44.588Z,52.67
2019-06-01T04:36:44.620Z,52.76
2019-06-01T04:37:44.635Z,52.57
2019-06-01T04:38:44.660Z,52.76
2019-06-01T04:39:44.678Z,53.05
2019-06-01T04:40:44.693Z,52.95
2019-06-01T04:41:44.705Z,52.95
2019-06-01T04:42:44.746Z,52.95
2019-06-01T04:43:44.754Z,53.15
2019-06-01T04:44:44.831Z,53.05
2019-06-01T04:45:44.804Z,52.86
2019-06-01T04:46:44.808Z,52.76
2019-06-01T04:47:44.847Z,53.24
2019-06-01T04:48:44.850Z,52.86
2019-06-01T04:49:44.887Z,52.76
2019-06-01T04:50:44.898Z,53.15
2019-06-01T04:51:44.668Z,53.63
2019-06-01T04:52:44.944Z,53.82
2019-06-01T04:53:44.961Z,53.05
2019-06-01T04:54:44.985Z,53.82
2019-06-01T04:55:45.012Z,53.44
2019-06-01T04:56:45.007Z,53.63
2019-06-01T04:57:45.051Z,53.53
2019-06-01T04:58:45.056Z,53.63
2019-06-01T04:59:45.086Z,54.01
2019-06-01T05:00:45.096Z,54.21
2019-06-01T05:01:45.138Z,54.58
2019-06-01T05:02:45.136Z,53.82
2019-06-01T05:03:45.149Z,53.63
2019-06-01T05:04:46.163Z,53.72
2019-06-01T05:05:45.204Z,54.3
2019-06-01T05:06:45.214Z,54.78
2019-06-01T05:07:45.243Z,54.21
2019-06-01T05:08:45.280Z,54.52
2019-06-01T05:09:45.280Z,54.97
2019-06-01T05:10:45.315Z,54.49
2019-06-01T05:11:45.321Z,54.61
2019-06-01T05:12:45.340Z,54.88
2019-06-01T05:13:45.421Z,54.61
2019-06-01T05:14:45.381Z,54.71
2019-06-01T05:15:45.425Z,54.71
2019-06-01T05:16:45.437Z,55.07
2019-06-01T05:17:45.188Z,55.35
2019-06-01T05:18:45.461Z,55.38
2019-06-01T05:19:45.487Z,55.16
2019-06-01T05:20:45.506Z,55.45
2019-06-01T05:21:45.542Z,55.07
2019-06-01T05:22:45.556Z,55.77
2019-06-01T05:23:45.582Z,55.38
2019-06-01T05:24:45.593Z,55.38
2019-06-01T05:25:45.611Z,55.26
2019-06-01T05:26:45.626Z,55.67
2019-06-01T05:27:45.657Z,55.67
2019-06-01T05:28:45.412Z,55.67
2019-06-01T05:29:45.707Z,55.19
2019-06-01T05:30:45.450Z,55.57
2019-06-01T05:31:45.728Z,55.47
2019-06-01T05:32:45.743Z,55.19
2019-06-01T05:33:45.788Z,55.19
2019-06-01T05:34:45.790Z,55.19
2019-06-01T05:35:45.816Z,55.57
2019-06-01T05:36:45.833Z,55.29
2019-06-01T05:37:46.249Z,55.29
2019-06-01T05:38:45.869Z,55.77
2019-06-01T05:39:45.910Z,55.38
2019-06-01T05:40:45.910Z,55.29
2019-06-01T05:41:45.681Z,55.1
2019-06-01T05:42:45.965Z,55.67
2019-06-01T05:43:46.031Z,55.67
2019-06-01T05:44:46.011Z,55.1
2019-06-01T05:45:46.045Z,55.19
2019-06-01T05:46:46.042Z,55.77
2019-06-01T05:47:46.079Z,55.19
2019-06-01T05:48:46.094Z,55.86
2019-06-01T05:49:46.128Z,55.47
2019-06-01T05:50:46.135Z,55.67
2019-06-01T05:51:46.168Z,55.96
2019-06-01T05:52:46.192Z,55.57
2019-06-01T05:53:46.175Z,55.77
2019-06-01T05:54:46.219Z,55.96
2019-06-01T05:55:46.239Z,55.57
2019-06-01T05:56:46.238Z,55.6
2019-06-01T05:57:46.262Z,55.77
2019-06-01T05:58:46.353Z,54.9
2019-06-01T05:59:46.051Z,55.57
2019-06-01T06:00:46.373Z,55.69
2019-06-01T06:01:46.089Z,56.18
2019-06-01T06:02:46.121Z,55.89
2019-06-01T06:03:46.397Z,56.27
2019-06-01T06:04:46.418Z,55.99
2019-06-01T06:05:46.655Z,56.37
2019-06-01T06:06:46.453Z,56.76
2019-06-01T06:07:46.474Z,57.33
2019-06-01T06:08:46.489Z,57.14
2019-06-01T06:09:46.524Z,56.56
2019-06-01T06:10:46.540Z,57.04
2019-06-01T06:11:46.547Z,56.95
2019-06-01T06:12:46.582Z,56.76
2019-06-01T06:13:46.625Z,56.76
2019-06-01T06:14:46.626Z,56.85
2019-06-01T06:15:46.652Z,57.33
2019-06-01T06:16:46.658Z,57.14
2019-06-01T06:17:46.678Z,57.04
2019-06-01T06:18:46.696Z,56.95
2019-06-01T06:19:46.715Z,57.33
2019-06-01T06:20:46.749Z,57.14
2019-06-01T06:21:46.782Z,57.33
2019-06-01T06:22:46.795Z,57.23
2019-06-01T06:23:46.561Z,57.17
2019-06-01T06:24:46.582Z,57.23
2019-06-01T06:25:46.843Z,57.45
2019-06-01T06:26:46.886Z,57.17
2019-06-01T06:27:46.922Z,57.26
2019-06-01T06:28:46.653Z,56.98
2019-06-01T06:29:46.940Z,56.98
2019-06-01T06:30:46.963Z,57.75
2019-06-01T06:31:46.993Z,57.65
2019-06-01T06:32:47.004Z,57.17
2019-06-01T06:33:58.540Z,57.17
2019-06-01T06:34:46.793Z,57.07
2019-06-01T06:35:47.090Z,57.36
2019-06-01T06:36:46.834Z,57.07
2019-06-01T06:37:47.114Z,56.91
2019-06-01T06:38:46.888Z,56.81
2019-06-01T06:39:47.141Z,56.91
2019-06-01T06:40:47.162Z,56.81
2019-06-01T06:41:47.186Z,56.62
2019-06-01T06:42:47.215Z,56.33
2019-06-01T06:43:46.972Z,56.52
2019-06-01T06:44:47.255Z,56.43
2019-06-01T06:45:47.281Z,56.23
2019-06-01T06:46:47.037Z,56.36
2019-06-01T06:47:47.326Z,55.78
2019-06-01T06:48:47.367Z,56.26
2019-06-01T06:49:47.354Z,55.59
2019-06-01T06:50:47.136Z,55.68
2019-06-01T06:51:47.433Z,55.59
2019-06-01T06:52:47.427Z,56.1
2019-06-01T06:53:47.496Z,56.29
2019-06-01T06:54:47.510Z,56.2
2019-06-01T06:55:47.473Z,56.1
2019-06-01T06:56:47.250Z,56.2
2019-06-01T06:57:47.551Z,55.9
2019-06-01T06:58:47.634Z,55.9
2019-06-01T06:59:47.320Z,55.9
2019-06-01T07:00:47.604Z,55.43
2019-06-01T07:01:47.645Z,54.97
2019-06-01T07:02:47.646Z,55.33
2019-06-01T07:03:47.612Z,54.87
2019-06-01T07:04:47.694Z,55.16
2019-06-01T07:05:47.708Z,54.2
2019-06-01T07:06:47.729Z,54.58
2019-06-01T07:07:47.744Z,54.68
2019-06-01T07:08:51.220Z,55.19
2019-06-01T07:09:47.532Z,54.3
2019-06-01T07:10:47.791Z,53.84
2019-06-01T07:11:47.600Z,54.32
2019-06-01T07:12:47.840Z,54.03
2019-06-01T07:13:47.881Z,54.03
2019-06-01T07:14:47.639Z,54.03
2019-06-01T07:15:47.671Z,54.03
2019-06-01T07:16:47.939Z,53.94
2019-06-01T07:17:47.984Z,53.19
2019-06-01T07:18:47.995Z,53.36
2019-06-01T07:19:48.042Z,54.06
2019-06-01T07:20:48.034Z,53.77
2019-06-01T07:21:48.034Z,54.06
2019-06-01T07:22:48.082Z,53
2019-06-01T07:23:48.084Z,53
2019-06-01T07:24:47.868Z,53.77
2019-06-01T07:25:48.138Z,53.87
2019-06-01T07:26:48.170Z,53.67
2019-06-01T07:27:48.175Z,53.22
2019-06-01T07:28:48.206Z,53.22
2019-06-01T07:29:48.259Z,53.13
2019-06-01T07:30:53.167Z,53.13
2019-06-01T07:31:48.253Z,53.13
2019-06-01T07:32:48.291Z,52.83
2019-06-01T07:33:48.327Z,52.64
2019-06-01T07:34:48.323Z,52.93
2019-06-01T07:35:48.371Z,52.47
2019-06-01T07:36:48.377Z,52.47
2019-06-01T07:37:48.152Z,52.76
2019-06-01T07:38:48.410Z,52.57
2019-06-01T07:39:48.451Z,52.28
2019-06-01T07:40:48.252Z,51.89
2019-06-01T07:41:48.542Z,51.89
2019-06-01T07:42:48.877Z,52.09
2019-06-01T07:43:48.547Z,52.09
2019-06-01T07:44:48.333Z,51.99
2019-06-01T07:45:48.334Z,51.61
2019-06-01T07:46:48.610Z,51.61
2019-06-01T07:47:48.629Z,51.61
2019-06-01T07:48:48.653Z,51.63
2019-06-01T07:49:48.672Z,51.34
2019-06-01T07:50:48.701Z,51.44
2019-06-01T07:51:48.562Z,51.44
2019-06-01T07:52:48.738Z,51.34
2019-06-01T07:53:48.501Z,51.53
2019-06-01T07:54:48.774Z,51.63
2019-06-01T07:55:48.807Z,51.63
2019-06-01T07:56:48.828Z,51.44
2019-06-01T07:57:48.859Z,51.25
2019-06-01T07:58:48.626Z,51.63
2019-06-01T07:59:48.890Z,51.15
2019-06-01T08:00:48.911Z,51.27
2019-06-01T08:01:48.952Z,51.56
2019-06-01T08:02:48.952Z,51.27
2019-06-01T08:03:48.980Z,51.37
2019-06-01T08:04:55.790Z,51.17
2019-06-01T08:05:49.022Z,51.27
2019-06-01T08:06:51.103Z,51.27
2019-06-01T08:07:49.073Z,51.17
2019-06-01T08:08:49.094Z,51.27
2019-06-01T08:09:49.315Z,51.17
2019-06-01T08:10:49.254Z,51.07
2019-06-01T08:11:49.647Z,51.29
2019-06-01T08:12:49.064Z,51.2
2019-06-01T08:13:48.962Z,51.2
2019-06-01T08:14:48.983Z,51.29
2019-06-01T08:15:49.339Z,51.2
2019-06-01T08:16:49.295Z,51.49
2019-06-01T08:17:49.063Z,51.29
2019-06-01T08:18:52.943Z,51.42
2019-06-01T08:19:54.112Z,50.84
2019-06-01T08:20:49.416Z,50.93
2019-06-01T08:21:49.407Z,50.93
2019-06-01T08:22:49.430Z,51.13
2019-06-01T08:23:49.460Z,51.32
2019-06-01T08:24:49.481Z,51.13
2019-06-01T08:25:49.509Z,51.06
2019-06-01T08:26:49.526Z,50.96
2019-06-01T08:27:49.555Z,50.6
2019-06-01T08:28:49.563Z,50.96
2019-06-01T08:29:49.598Z,50.12
2019-06-01T08:30:49.613Z,50.21
2019-06-01T08:31:49.659Z,49.73
2019-06-01T08:32:49.655Z,49.15
2019-06-01T08:33:49.693Z,48.76
2019-06-01T08:34:49.575Z,48.79
2019-06-01T08:35:49.757Z,48.59
2019-06-01T08:36:49.769Z,48.3
2019-06-01T08:37:49.793Z,48.49
2019-06-01T08:38:49.551Z,48.49
2019-06-01T08:39:49.818Z,48.01
2019-06-01T08:40:49.849Z,48.01
2019-06-01T08:41:49.865Z,48.01
2019-06-01T08:42:49.917Z,47.91
2019-06-01T08:43:49.934Z,47.72
2019-06-01T08:44:49.942Z,47.55
2019-06-01T08:45:49.986Z,47.55
2019-06-01T08:46:49.744Z,47.16
2019-06-01T08:47:50.033Z,47.26
2019-06-01T08:48:50.054Z,47.84
2019-06-01T08:49:50.088Z,47.57
2019-06-01T08:50:49.840Z,47.28
2019-06-01T08:51:50.129Z,46.89
2019-06-01T08:52:50.136Z,47.19
2019-06-01T08:53:50.155Z,46.8
2019-06-01T08:54:50.211Z,47.09
2019-06-01T08:55:50.227Z,46.41
2019-06-01T08:56:49.980Z,46.33
2019-06-01T08:57:50.273Z,46.14
2019-06-01T08:58:50.297Z,46.24
2019-06-01T08:59:50.321Z,46.14
2019-06-01T09:00:50.094Z,45.95
2019-06-01T09:01:50.362Z,45.85
2019-06-01T09:02:50.380Z,45.78
2019-06-01T09:03:50.157Z,45.29
2019-06-01T09:04:50.424Z,45
2019-06-01T09:05:50.469Z,44.61
2019-06-01T09:06:50.494Z,44.23
2019-06-01T09:07:50.522Z,43.93
2019-06-01T09:08:50.582Z,43.35
2019-06-01T09:09:50.554Z,43.47
2019-06-01T09:10:50.605Z,43.57
2019-06-01T09:11:50.600Z,43.66
2019-06-01T09:12:50.384Z,43.66
2019-06-01T09:13:52.324Z,43.47
2019-06-01T09:14:50.683Z,43.66
2019-06-01T09:15:50.458Z,43.59
2019-06-01T09:16:50.753Z,43.59
2019-06-01T09:17:50.502Z,43.49
2019-06-01T09:18:50.625Z,43.68
2019-06-01T09:19:50.562Z,43.1
2019-06-01T09:20:50.841Z,43.32
2019-06-01T09:21:50.875Z,42.93
2019-06-01T09:22:50.925Z,42.54
2019-06-01T09:23:50.931Z,42.05
2019-06-01T09:24:55.252Z,41.28
2019-06-01T09:25:50.966Z,41.08
2019-06-01T09:26:50.759Z,40.89
2019-06-01T09:27:51.016Z,40.89
2019-06-01T09:28:51.046Z,40.79
2019-06-01T09:29:50.804Z,41.18
2019-06-01T09:30:51.108Z,40.79
2019-06-01T09:31:51.109Z,40.6
2019-06-01T09:32:51.149Z,40.89
2019-06-01T09:33:51.193Z,40.41
2019-06-01T09:34:51.211Z,39.82
2019-06-01T09:35:58.225Z,40.01
2019-06-01T09:36:51.256Z,40.23
2019-06-01T09:37:51.281Z,40.03
2019-06-01T09:38:51.331Z,39.65
2019-06-01T09:39:51.334Z,39.75
2019-06-01T09:40:51.462Z,39.45
2019-06-01T09:41:51.385Z,39.26
2019-06-01T09:42:51.392Z,39.16
2019-06-01T09:43:51.451Z,38.87
2019-06-01T09:44:51.212Z,38.67
2019-06-01T09:45:55.400Z,38.96
2019-06-01T09:46:51.523Z,38.87
2019-06-01T09:47:51.547Z,38.67
2019-06-01T09:48:51.905Z,38.67
2019-06-01T09:49:51.577Z,38.67
2019-06-01T09:50:51.610Z,38.77
2019-06-01T09:51:51.722Z,38.67
2019-06-01T09:52:51.864Z,38.67
2019-06-01T09:53:51.700Z,38.5
2019-06-01T09:54:51.738Z,38.79
2019-06-01T09:55:51.753Z,38.6
2019-06-01T09:56:51.826Z,37.82
2019-06-01T09:57:51.816Z,38.31
2019-06-01T09:58:51.575Z,37.84
2019-06-01T09:59:51.858Z,38.13
2019-06-01T10:00:51.877Z,37.35
2019-06-01T10:01:52.000Z,37.26
2019-06-01T10:02:51.920Z,36.28
2019-06-01T10:03:51.789Z,36.96
2019-06-01T10:04:51.986Z,36.96
2019-06-01T10:06:03.976Z,36.87
2019-06-01T10:06:51.781Z,36.87
2019-06-01T10:07:52.079Z,36.96
2019-06-01T10:08:51.833Z,36.67
2019-06-01T10:09:51.862Z,36.88
2019-06-01T10:10:52.142Z,36.88
2019-06-01T10:11:51.914Z,36.49
2019-06-01T10:12:51.957Z,36.1
2019-06-01T10:13:52.379Z,35.91
2019-06-01T10:14:52.244Z,36
2019-06-01T10:15:52.288Z,36.02
2019-06-01T10:16:52.315Z,35.63
2019-06-01T10:17:52.070Z,35.73
2019-06-01T10:18:52.370Z,35.73
2019-06-01T10:19:52.423Z,35.53
2019-06-01T10:20:52.412Z,35.25
2019-06-01T10:21:52.449Z,34.95
2019-06-01T10:22:52.459Z,35.05
2019-06-01T10:23:52.611Z,34.95
2019-06-01T10:24:52.529Z,34.76
2019-06-01T10:25:52.300Z,34.68
2019-06-01T10:26:52.565Z,34.68
2019-06-01T10:27:53.554Z,34.97
2019-06-01T10:28:52.659Z,34.48
2019-06-01T10:29:52.679Z,34.11
2019-06-01T10:30:52.694Z,33.92
2019-06-01T10:31:52.721Z,34.01
2019-06-01T10:32:52.755Z,34.4
2019-06-01T10:33:54.260Z,33.92
2019-06-01T10:34:52.809Z,33.93
2019-06-01T10:35:52.574Z,33.54
2019-06-01T10:36:52.591Z,33.64
2019-06-01T10:37:52.878Z,33.44
2019-06-01T10:38:52.929Z,33.15
2019-06-01T10:39:52.933Z,32.86
2019-06-01T10:40:52.985Z,32.48
2019-06-01T10:41:53.010Z,32.48
2019-06-01T10:42:53.075Z,32.39
2019-06-01T10:43:53.033Z,32.68
2019-06-01T10:44:53.074Z,32.6
2019-06-01T10:45:53.106Z,32.21
2019-06-01T10:46:53.137Z,32.31
2019-06-01T10:47:53.163Z,31.43
2019-06-01T10:48:53.298Z,31.62
2019-06-01T10:49:53.227Z,31.74
2019-06-01T10:50:53.245Z,31.64
2019-06-01T10:51:53.293Z,31.35
2019-06-01T10:52:53.302Z,31.35
2019-06-01T10:53:53.075Z,31.25
2019-06-01T10:54:53.125Z,31.15
2019-06-01T10:55:53.370Z,31.15
2019-06-01T10:56:53.795Z,31.25
2019-06-01T10:57:53.453Z,31.07
2019-06-01T10:59:02.499Z,30.77
2019-06-01T10:59:53.235Z,30.58
2019-06-01T11:00:54.126Z,30.09
2019-06-01T11:01:53.561Z,30.29
2019-06-01T11:02:53.594Z,30.68
2019-06-01T11:03:53.606Z,30.77
2019-06-01T11:04:53.654Z,30.77
2019-06-01T11:05:53.672Z,30.77
2019-06-01T11:06:53.438Z,30.69
2019-06-01T11:07:53.745Z,30.79
2019-06-01T11:08:53.515Z,30.79
2019-06-01T11:09:53.826Z,30.41
2019-06-01T11:10:53.848Z,30.51
2019-06-01T11:11:53.856Z,30.12
2019-06-01T11:12:53.894Z,30.32
2019-06-01T11:13:53.896Z,29.73
2019-06-01T11:14:53.925Z,30.12
2019-06-01T11:15:53.975Z,29.64
2019-06-01T11:16:59.169Z,29.74
2019-06-01T11:17:54.028Z,29.64
2019-06-01T11:18:54.042Z,29.35
2019-06-01T11:19:54.074Z,29.35
2019-06-01T11:20:54.099Z,29.25
2019-06-01T11:21:54.220Z,29.56
2019-06-01T11:22:54.161Z,29.66
2019-06-01T11:23:54.201Z,29.18
2019-06-01T11:24:54.220Z,29.08
2019-06-01T11:25:54.264Z,28.3
2019-06-01T11:26:54.271Z,28.99
2019-06-01T11:27:54.318Z,28.59
2019-06-01T11:28:54.363Z,28.71
2019-06-01T11:29:54.368Z,28.71
2019-06-01T11:30:54.390Z,28.12
2019-06-01T11:31:54.428Z,28.31
2019-06-01T11:32:54.474Z,27.84
2019-06-01T11:33:54.228Z,27.84
2019-06-01T11:34:54.529Z,27.94
2019-06-01T11:35:54.563Z,27.74
2019-06-01T11:37:07.058Z,28.13
2019-06-01T11:37:54.602Z,28.25
2019-06-01T11:38:54.640Z,28.25
2019-06-01T11:39:54.678Z,28.05
2019-06-01T11:40:54.747Z,27.95
2019-06-01T11:41:54.763Z,27.36
2019-06-01T11:42:54.771Z,27.37
2019-06-01T11:43:54.787Z,27.47
2019-06-01T11:44:54.873Z,27.37
2019-06-01T11:45:54.869Z,27.37
2019-06-01T11:46:54.943Z,26.7
2019-06-01T11:47:54.908Z,26.61
2019-06-01T11:48:54.945Z,26.8
2019-06-01T11:49:54.968Z,26.23
2019-06-01T11:50:54.994Z,26.42
2019-06-01T11:51:55.201Z,26.23
2019-06-01T11:52:55.081Z,26.12
2019-06-01T11:53:55.107Z,26.03
2019-06-01T11:54:55.116Z,26.12
2019-06-01T11:55:55.168Z,26.14
2019-06-01T11:56:55.219Z,26.34
2019-06-01T11:57:55.213Z,25.84
2019-06-01T11:58:55.253Z,25.85
2019-06-01T11:59:55.297Z,25.46
2019-06-01T12:00:55.306Z,25.76
2019-06-01T12:01:55.347Z,25.28
2019-06-01T12:02:55.128Z,24.49
2019-06-01T12:03:55.412Z,24.59
2019-06-01T12:04:55.436Z,24.7
2019-06-01T12:05:55.484Z,24.7
2019-06-01T12:06:55.513Z,24.8
2019-06-01T12:07:55.527Z,24.51
2019-06-01T12:08:55.584Z,24.41
2019-06-01T12:09:55.343Z,24.12
2019-06-01T12:10:55.624Z,24.71
2019-06-01T12:11:55.418Z,23.83
2019-06-01T12:12:55.700Z,23.83
2019-06-01T12:13:55.715Z,23.44
2019-06-01T12:14:55.765Z,23.36
2019-06-01T12:15:55.800Z,23.26
2019-06-01T12:16:55.838Z,23.26
2019-06-01T12:17:55.863Z,23.16
2019-06-01T12:18:55.873Z,23.37
2019-06-01T12:19:55.908Z,22.58
2019-06-01T12:20:55.986Z,22.69
2019-06-01T12:21:55.975Z,22.69
2019-06-01T12:22:56.019Z,22.19
2019-06-01T12:23:56.049Z,22.8
2019-06-01T12:24:55.819Z,22.3
2019-06-01T12:25:56.126Z,22.3
2019-06-01T12:26:56.148Z,22.3
2019-06-01T12:27:56.179Z,22.2
2019-06-01T12:28:56.212Z,22.12
2019-06-01T12:29:56.262Z,21.53
2019-06-01T12:30:56.281Z,21.44
2019-06-01T12:31:56.312Z,21.64
2019-06-01T12:32:56.334Z,21.44
2019-06-01T12:33:56.369Z,21.04
2019-06-01T12:34:56.413Z,21.35
2019-06-01T12:35:56.183Z,20.95
2019-06-01T12:36:56.487Z,21.05
2019-06-01T12:38:08.548Z,20.76
2019-06-01T12:38:56.572Z,21.15
2019-06-01T12:39:56.930Z,20.86
2019-06-01T12:40:56.601Z,21.05
2019-06-01T12:41:56.647Z,21.06
2019-06-01T12:42:56.687Z,20.97
2019-06-01T12:43:56.460Z,21.36
2019-06-01T12:44:56.473Z,20.47
2019-06-01T12:46:09.654Z,20.67
2019-06-01T12:46:56.822Z,20.08
2019-06-01T12:48:00.620Z,19.68
2019-06-01T12:48:56.899Z,19.39
2019-06-01T12:49:56.898Z,19.5
2019-06-01T12:50:56.944Z,19.5
2019-06-01T12:51:57.002Z,19.4
2019-06-01T12:52:57.014Z,19.4
2019-06-01T12:53:57.038Z,19.5
2019-06-01T12:54:57.085Z,19.5
2019-06-01T12:55:57.111Z,19.5